Terminal Aerodrome Forecast
Issued by NWS Wakefield, VA

Home | Current Version | Previous Version | Text Only | Print | Product List | Glossary On
Versions: 1 2 3 4 5 6 7 8 9 10 11 12 13 14 15 16 17 18 19 20 21 22
000
FTUS41 KAKQ 271724
TAFSBY
TAF
KSBY 271724Z 2718/2818 21013G20KT P6SM BKN035 BKN080
     FM272300 18009KT P6SM BKN150
     FM280700 20006KT P6SM BKN030
     FM280900 20006KT P6SM BKN010
     FM281400 21006KT P6SM BKN040=

USA.gov is the U.S. government's official web portal to all federal, state and local government web resources and services.